createdAt,value
2018-04-07T00:01:58.836Z,25.50
2018-04-07T00:04:26.352Z,25.53
2018-04-07T00:06:53.996Z,25.37
2018-04-07T00:09:21.530Z,29.60
2018-04-07T00:11:49.053Z,30.73
2018-04-07T00:14:16.593Z,25.53
2018-04-07T00:16:44.093Z,25.50
2018-04-07T00:19:11.597Z,25.03
2018-04-07T00:21:39.889Z,24.83
2018-04-07T00:24:08.159Z,24.43
2018-04-07T00:26:36.428Z,24.87
2018-04-07T00:29:04.122Z,24.77
2018-04-07T00:34:12.872Z,25.00
2018-04-07T00:36:40.379Z,26.23
2018-04-07T00:39:07.889Z,26.70
2018-04-07T00:41:35.650Z,25.17
2018-04-07T00:44:03.916Z,27.37
2018-04-07T00:46:32.206Z,28.63
2018-04-07T00:49:00.510Z,26.57
2018-04-07T00:51:28.023Z,25.67
2018-04-07T00:53:55.741Z,25.43
2018-04-07T00:56:23.263Z,27.83
2018-04-07T00:58:50.772Z,24.43
2018-04-07T01:01:18.527Z,25.97
2018-04-07T01:03:46.794Z,27.27
2018-04-07T01:06:15.210Z,28.27
2018-04-07T01:08:42.732Z,28.37
2018-04-07T01:11:11.012Z,28.03
2018-04-07T01:13:39.516Z,25.33
2018-04-07T01:16:07.034Z,24.50
2018-04-07T01:18:34.533Z,27.13
2018-04-07T01:21:02.308Z,26.07
2018-04-07T01:23:29.819Z,26.10
2018-04-07T01:25:57.332Z,25.30
2018-04-07T01:28:24.870Z,24.10
2018-04-07T01:30:52.392Z,24.73
2018-04-07T01:33:19.912Z,24.60
2018-04-07T01:35:48.409Z,25.13
2018-04-07T01:38:15.930Z,25.70
2018-04-07T01:40:43.456Z,24.00
2018-04-07T01:43:11.014Z,25.90
2018-04-07T01:45:38.521Z,24.10
2018-04-07T01:48:06.024Z,26.57
2018-04-07T01:50:34.503Z,25.10
2018-04-07T01:53:02.766Z,26.70
2018-04-07T01:55:30.284Z,27.17
2018-04-07T01:57:58.021Z,24.40
2018-04-07T02:00:25.521Z,24.30
2018-04-07T02:02:53.038Z,23.67
2018-04-07T02:05:21.313Z,22.77
2018-04-07T02:07:49.590Z,21.90
2018-04-07T02:10:17.977Z,21.50
2018-04-07T02:12:46.253Z,21.70
2018-04-07T02:15:14.528Z,21.43
2018-04-07T02:17:42.230Z,20.87
2018-04-07T02:20:09.731Z,20.60
2018-04-07T02:22:37.236Z,21.43
2018-04-07T02:25:05.720Z,21.73
2018-04-07T02:27:33.993Z,22.87
2018-04-07T02:30:02.294Z,22.63
2018-04-07T02:32:29.949Z,21.27
2018-04-07T02:34:58.220Z,21.93
2018-04-07T02:37:26.498Z,21.93
2018-04-07T02:39:54.802Z,21.20
2018-04-07T02:42:22.320Z,19.33
2018-04-07T02:44:49.821Z,20.67
2018-04-07T02:47:17.348Z,20.10
2018-04-07T02:49:44.848Z,18.60
2018-04-07T02:52:12.363Z,19.63
2018-04-07T02:54:40.073Z,18.67
2018-04-07T02:57:08.366Z,18.77
2018-04-07T02:59:35.865Z,18.80
2018-04-07T03:02:03.658Z,18.57
2018-04-07T03:04:31.173Z,18.43
2018-04-07T03:06:58.680Z,18.63
2018-04-07T03:09:26.225Z,19.70
2018-04-07T03:11:53.744Z,19.47
2018-04-07T03:14:21.269Z,19.40
2018-04-07T03:16:48.793Z,18.53
2018-04-07T03:19:16.308Z,18.03
2018-04-07T03:21:44.580Z,18.97
2018-04-07T03:24:12.277Z,18.90
2018-04-07T03:26:40.541Z,18.27
2018-04-07T03:29:09.050Z,17.87
2018-04-07T03:31:36.558Z,17.57
2018-04-07T03:34:04.083Z,17.90
2018-04-07T03:36:31.738Z,18.43
2018-04-07T03:38:59.252Z,17.83
2018-04-07T03:41:26.760Z,17.33
2018-04-07T03:43:55.350Z,17.23
2018-04-07T03:46:22.860Z,16.57
2018-04-07T03:48:50.350Z,18.33
2018-04-07T03:51:18.022Z,15.50
2018-04-07T03:53:46.293Z,16.90
2018-04-07T03:56:13.797Z,16.90
2018-04-07T03:58:41.545Z,15.57
2018-04-07T04:01:09.815Z,16.17
2018-04-07T04:03:38.197Z,15.37
2018-04-07T04:06:05.709Z,15.43
2018-04-07T04:08:33.218Z,15.63
2018-04-07T04:11:00.904Z,16.20
2018-04-07T04:13:29.176Z,15.10
2018-04-07T04:15:57.448Z,16.07
2018-04-07T04:18:24.981Z,15.03
2018-04-07T04:20:52.498Z,14.83
2018-04-07T04:23:20.011Z,14.47
2018-04-07T04:25:47.557Z,15.13
2018-04-07T04:28:15.060Z,14.47
2018-04-07T04:30:42.559Z,13.63
2018-04-07T04:33:10.416Z,13.30
2018-04-07T04:35:38.681Z,13.50
2018-04-07T04:38:06.982Z,14.40
2018-04-07T04:40:34.515Z,13.63
2018-04-07T04:43:02.036Z,13.93
2018-04-07T04:45:29.667Z,13.67
2018-04-07T04:47:57.937Z,15.00
2018-04-07T04:50:26.206Z,14.50
2018-04-07T04:52:53.894Z,13.57
2018-04-07T04:55:22.167Z,14.23
2018-04-07T04:57:50.438Z,13.90
2018-04-07T05:00:18.944Z,14.37
2018-04-07T05:02:46.457Z,14.10
2018-04-07T05:05:13.969Z,14.57
2018-04-07T05:07:41.509Z,13.10
2018-04-07T05:10:09.025Z,14.40
2018-04-07T05:12:36.534Z,14.20
2018-04-07T05:15:04.192Z,13.77
2018-04-07T05:17:32.445Z,14.23
2018-04-07T05:19:59.949Z,14.13
2018-04-07T05:22:28.248Z,13.73
2018-04-07T05:24:56.513Z,12.90
2018-04-07T05:27:24.782Z,13.53
2018-04-07T05:29:52.291Z,13.67
2018-04-07T05:32:19.800Z,13.07
2018-04-07T05:34:47.429Z,13.30
2018-04-07T05:37:14.990Z,13.80
2018-04-07T05:39:42.517Z,13.37
2018-04-07T05:42:10.900Z,13.13
2018-04-07T05:44:39.193Z,12.50
2018-04-07T05:47:06.718Z,13.70
2018-04-07T05:49:34.250Z,11.83
2018-04-07T05:52:01.802Z,12.97
2018-04-07T05:54:29.360Z,12.73
2018-04-07T05:56:57.008Z,13.23
2018-04-07T05:59:25.313Z,14.20
2018-04-07T06:01:52.817Z,13.50
2018-04-07T06:04:20.537Z,12.80
2018-04-07T06:06:48.068Z,12.70
2018-04-07T06:09:16.341Z,13.17
2018-04-07T06:11:44.680Z,13.60
2018-04-07T06:14:12.183Z,12.07
2018-04-07T06:16:39.882Z,12.57
2018-04-07T06:19:07.402Z,12.30
2018-04-07T06:21:34.925Z,11.57
2018-04-07T06:24:02.714Z,12.33
2018-04-07T06:26:30.266Z,10.97
2018-04-07T06:28:57.772Z,11.40
2018-04-07T06:31:25.334Z,10.47
2018-04-07T06:33:53.053Z,12.23
2018-04-07T06:36:20.617Z,10.33
2018-04-07T06:38:48.266Z,10.30
2018-04-07T06:41:15.881Z,9.70
2018-04-07T06:43:43.467Z,10.13
2018-04-07T06:46:11.855Z,9.77
2018-04-07T06:48:40.146Z,10.33
2018-04-07T06:51:08.436Z,10.87
2018-04-07T06:53:36.201Z,9.80
2018-04-07T06:56:04.470Z,10.43
2018-04-07T07:15:20.920Z,9.90
2018-04-07T07:17:48.940Z,9.97
2018-04-07T07:34:26.944Z,9.17
2018-04-07T07:36:54.780Z,8.10
2018-04-07T07:39:23.079Z,8.73
2018-04-07T07:41:50.590Z,9.40
2018-04-07T07:44:18.397Z,8.17
2018-04-07T07:46:45.989Z,8.93
2018-04-07T07:49:13.505Z,8.77
2018-04-07T07:51:41.296Z,9.37
2018-04-07T07:54:08.816Z,7.90
2018-04-07T07:56:37.161Z,6.90
2018-04-07T07:59:04.918Z,7.27
2018-04-07T08:01:32.460Z,6.73
2018-04-07T08:04:00.016Z,6.90
2018-04-07T08:06:27.699Z,7.63
2018-04-07T08:08:55.245Z,6.40
2018-04-07T08:11:22.818Z,6.50
2018-04-07T08:13:50.564Z,7.10
2018-04-07T08:16:18.117Z,6.67
2018-04-07T08:18:46.434Z,6.17
2018-04-07T08:21:14.031Z,7.00
2018-04-07T08:23:41.543Z,6.63
2018-04-07T08:26:09.074Z,7.07
2018-04-07T08:28:37.491Z,6.87
2018-04-07T08:31:05.039Z,6.40
2018-04-07T08:33:32.631Z,7.30
2018-04-07T08:36:00.208Z,6.93
2018-04-07T08:38:27.704Z,7.33
2018-04-07T08:40:55.218Z,6.93
2018-04-07T08:43:23.082Z,6.57
2018-04-07T08:45:50.603Z,6.87
2018-04-07T08:48:18.149Z,6.53
2018-04-07T08:50:45.859Z,6.50
2018-04-07T08:53:14.142Z,7.77
2018-04-07T08:55:41.658Z,7.37
2018-04-07T08:58:09.295Z,6.97
2018-04-07T09:00:36.799Z,6.80
2018-04-07T09:03:04.370Z,8.47
2018-04-07T09:05:32.185Z,8.13
2018-04-07T09:07:59.726Z,8.10
2018-04-07T09:10:27.272Z,7.17
2018-04-07T09:12:55.702Z,6.97
2018-04-07T09:15:23.210Z,7.10
2018-04-07T09:17:50.748Z,7.80
2018-04-07T09:20:18.386Z,8.20
2018-04-07T09:22:45.895Z,8.50
2018-04-07T09:25:13.408Z,8.03
2018-04-07T09:27:41.086Z,8.23
2018-04-07T09:30:08.713Z,8.17
2018-04-07T09:32:36.986Z,7.80
2018-04-07T09:35:05.389Z,7.07
2018-04-07T09:37:32.913Z,7.07
2018-04-07T09:40:00.451Z,7.00
2018-04-07T09:42:28.227Z,6.87
2018-04-07T09:44:55.728Z,7.60
2018-04-07T09:47:23.247Z,7.60
2018-04-07T09:49:50.932Z,7.27
2018-04-07T09:52:19.242Z,7.10
2018-04-07T09:54:47.514Z,7.20
2018-04-07T09:57:15.063Z,8.03
2018-04-07T09:59:42.580Z,7.50
2018-04-07T10:02:10.101Z,7.23
2018-04-07T10:04:37.666Z,7.63
2018-04-07T10:07:05.232Z,8.10
2018-04-07T10:09:32.791Z,8.37
2018-04-07T10:12:00.484Z,7.23
2018-04-07T10:14:28.762Z,7.03
2018-04-07T10:16:57.051Z,7.50
2018-04-07T10:19:25.329Z,7.50
2018-04-07T10:21:52.877Z,7.27
2018-04-07T10:24:20.512Z,8.57
2018-04-07T10:26:48.093Z,7.67
2018-04-07T10:29:15.661Z,7.27
2018-04-07T10:31:43.306Z,7.10
2018-04-07T10:34:10.822Z,7.67
2018-04-07T10:36:38.332Z,7.47
2018-04-07T10:39:06.693Z,7.33
2018-04-07T10:41:34.242Z,7.33
2018-04-07T10:44:01.767Z,7.93
2018-04-07T10:46:29.452Z,7.40
2018-04-07T10:48:57.803Z,8.17
2018-04-07T10:51:25.326Z,7.40
2018-04-07T10:53:52.858Z,8.03
2018-04-07T10:56:21.176Z,7.43
2018-04-07T10:58:48.733Z,7.73
2018-04-07T11:01:16.270Z,8.70
2018-04-07T11:03:44.553Z,7.97
2018-04-07T11:06:13.229Z,8.30
2018-04-07T11:08:41.518Z,8.07
2018-04-07T11:11:09.909Z,8.83
2018-04-07T11:13:37.657Z,7.50
2018-04-07T11:16:05.970Z,8.23
2018-04-07T11:18:33.553Z,8.33
2018-04-07T11:21:01.184Z,8.70
2018-04-07T11:23:29.472Z,7.53
2018-04-07T11:25:56.982Z,7.47
2018-04-07T11:28:24.655Z,7.80
2018-04-07T11:30:52.245Z,7.90
2018-04-07T11:33:20.531Z,7.73
2018-04-07T11:35:49.026Z,8.60
2018-04-07T11:38:17.296Z,8.23
2018-04-07T11:40:45.592Z,8.47
2018-04-07T11:43:13.102Z,8.47
2018-04-07T11:45:41.415Z,8.23
2018-04-07T11:48:09.830Z,7.97
2018-04-07T11:50:37.341Z,8.23
2018-04-07T11:53:04.918Z,8.53
2018-04-07T11:55:32.563Z,8.47
2018-04-07T11:58:14.907Z,9.03
2018-04-07T12:01:05.125Z,7.97
2018-04-07T12:03:32.680Z,7.93
2018-04-07T12:06:07.662Z,8.20
2018-04-07T12:08:35.168Z,8.23
2018-04-07T12:11:02.706Z,8.63
2018-04-07T12:13:31.102Z,8.70
2018-04-07T12:15:59.466Z,8.33
2018-04-07T12:18:28.287Z,8.20
2018-04-07T12:20:55.816Z,8.63
2018-04-07T12:23:23.324Z,8.10
2018-04-07T12:25:51.088Z,8.30
2018-04-07T12:28:18.682Z,8.40
2018-04-07T12:30:46.203Z,8.20
2018-04-07T12:33:13.822Z,7.47
2018-04-07T12:35:41.382Z,7.30
2018-04-07T12:38:08.882Z,7.17
2018-04-07T12:40:37.396Z,6.70
2018-04-07T12:43:04.908Z,7.83
2018-04-07T12:45:33.200Z,7.47
2018-04-07T12:48:01.587Z,7.40
2018-04-07T12:50:29.853Z,7.37
2018-04-07T12:52:57.379Z,7.83
2018-04-07T12:55:25.004Z,7.53
2018-04-07T12:57:53.266Z,7.73
2018-04-07T13:00:20.781Z,8.03
2018-04-07T13:02:48.314Z,8.13
2018-04-07T13:05:16.581Z,8.10
2018-04-07T13:07:45.098Z,7.90
2018-04-07T13:10:12.638Z,7.33
2018-04-07T13:12:40.998Z,8.30
2018-04-07T13:15:08.652Z,8.37
2018-04-07T13:17:36.164Z,7.93
2018-04-07T13:20:03.691Z,7.60
2018-04-07T13:22:31.249Z,8.10
2018-04-07T13:24:58.785Z,7.97
2018-04-07T13:27:26.302Z,7.57
2018-04-07T13:29:54.006Z,8.47
2018-04-07T13:32:21.527Z,9.10
2018-04-07T13:34:49.815Z,8.03
2018-04-07T13:37:17.455Z,6.97
2018-04-07T13:39:44.964Z,7.67
2018-04-07T13:42:12.516Z,8.20
2018-04-07T13:44:40.284Z,7.60
2018-04-07T13:47:07.850Z,7.10
2018-04-07T13:49:35.358Z,7.57
2018-04-07T13:52:03.142Z,7.23
2018-04-07T13:54:30.660Z,8.33
2018-04-07T13:56:58.189Z,7.40
2018-04-07T13:59:26.595Z,7.87
2018-04-07T14:01:54.179Z,7.03
2018-04-07T14:04:21.731Z,7.47
2018-04-07T14:06:49.397Z,7.17
2018-04-07T14:09:16.913Z,7.70
2018-04-07T14:11:44.423Z,7.83
2018-04-07T14:14:11.954Z,7.90
2018-04-07T14:16:40.238Z,8.37
2018-04-07T14:19:08.497Z,7.87
2018-04-07T14:21:36.084Z,7.97
2018-04-07T14:24:04.404Z,7.40
2018-04-07T14:26:31.922Z,7.57
2018-04-07T14:29:00.234Z,7.97
2018-04-07T14:31:27.750Z,7.73
2018-04-07T14:33:55.263Z,7.43
2018-04-07T14:36:22.803Z,7.97
2018-04-07T14:38:51.091Z,7.63
2018-04-07T14:41:18.657Z,7.20
2018-04-07T14:43:46.303Z,7.43
2018-04-07T14:46:14.595Z,7.37
2018-04-07T14:48:42.988Z,6.73
2018-04-07T14:51:10.492Z,6.47
2018-04-07T14:53:38.001Z,6.47
2018-04-07T14:56:06.412Z,7.20
2018-04-07T14:58:33.932Z,7.30
2018-04-07T15:01:01.449Z,6.90
2018-04-07T15:03:29.194Z,7.50
2018-04-07T15:05:56.720Z,7.70
2018-04-07T15:08:24.244Z,7.60
2018-04-07T15:10:51.783Z,7.13
2018-04-07T15:13:19.293Z,7.47
2018-04-07T15:15:46.825Z,7.47
2018-04-07T15:18:14.590Z,7.00
2018-04-07T15:20:42.130Z,6.90
2018-04-07T15:23:10.429Z,6.90
2018-04-07T15:25:37.993Z,7.70
2018-04-07T15:28:05.561Z,8.33
2018-04-07T15:30:33.077Z,8.73
2018-04-07T15:33:00.644Z,9.87
2018-04-07T15:35:29.074Z,9.40
2018-04-07T15:37:56.596Z,9.37
2018-04-07T15:40:24.230Z,9.00
2018-04-07T15:42:51.855Z,9.27
2018-04-07T15:45:19.433Z,9.53
2018-04-07T15:47:47.187Z,9.13
2018-04-07T15:50:14.693Z,9.03
2018-04-07T15:52:43.016Z,9.40
2018-04-07T15:55:11.314Z,10.87
2018-04-07T15:57:38.900Z,18.57
2018-04-07T16:00:06.540Z,20.57
2018-04-07T16:02:34.308Z,10.75
2018-04-07T16:05:02.592Z,10.37
2018-04-07T16:07:30.147Z,10.10
2018-04-07T16:09:58.590Z,9.20
2018-04-07T16:12:26.094Z,8.60
2018-04-07T16:14:54.401Z,8.70
2018-04-07T16:17:22.186Z,7.80
2018-04-07T16:19:49.702Z,8.27
2018-04-07T16:22:17.991Z,7.40
2018-04-07T16:24:46.322Z,8.23
2018-04-07T16:27:13.841Z,7.63
2018-04-07T16:29:41.355Z,7.53
2018-04-07T16:32:09.046Z,7.60
2018-04-07T16:34:37.333Z,8.20
2018-04-07T16:37:05.972Z,8.10
2018-04-07T16:39:33.614Z,7.47
2018-04-07T16:42:01.251Z,8.60
2018-04-07T16:44:29.763Z,7.60
2018-04-07T16:46:57.270Z,7.73
2018-04-07T16:49:24.805Z,7.43
2018-04-07T16:51:52.461Z,7.70
2018-04-07T16:54:19.975Z,7.83
2018-04-07T16:56:47.496Z,7.83
2018-04-07T16:59:15.026Z,7.87
2018-04-07T17:01:43.360Z,8.20
2018-04-07T17:04:10.875Z,8.53
2018-04-07T17:06:39.153Z,8.47
2018-04-07T17:09:07.430Z,8.33
2018-04-07T17:11:35.928Z,8.50
2018-04-07T17:14:03.473Z,9.70
2018-04-07T17:16:31.767Z,8.70
2018-04-07T17:19:00.269Z,8.83
2018-04-07T17:21:27.772Z,9.63
2018-04-07T17:23:55.290Z,10.23
2018-04-07T17:26:23.051Z,9.60
2018-04-07T17:28:50.590Z,10.17
2018-04-07T17:31:18.947Z,11.03
2018-04-07T17:33:46.770Z,9.20
2018-04-07T17:36:14.281Z,10.00
2018-04-07T17:38:41.793Z,9.90
2018-04-07T17:41:09.633Z,10.23
2018-04-07T17:43:37.226Z,9.43
2018-04-07T17:46:05.642Z,9.63
2018-04-07T17:48:33.258Z,10.23
2018-04-07T17:51:01.686Z,10.53
2018-04-07T17:53:29.344Z,10.73
2018-04-07T17:55:57.070Z,10.83
2018-04-07T17:58:24.634Z,10.43
2018-04-07T18:00:52.156Z,11.80
2018-04-07T18:03:19.893Z,11.60
2018-04-07T18:05:47.456Z,12.90
2018-04-07T18:08:14.993Z,12.67
2018-04-07T18:10:42.548Z,12.70
2018-04-07T18:13:10.077Z,12.43
2018-04-07T18:15:37.611Z,13.37
2018-04-07T18:18:05.384Z,13.67
2018-04-07T18:20:32.980Z,12.57
2018-04-07T18:23:00.559Z,13.70
2018-04-07T18:25:28.095Z,13.63
2018-04-07T18:27:55.604Z,14.23
2018-04-07T18:30:23.905Z,14.90
2018-04-07T18:32:52.202Z,14.27
2018-04-07T18:35:19.709Z,15.00
2018-04-07T18:37:47.270Z,16.17
2018-04-07T18:40:14.999Z,16.30
2018-04-07T18:42:42.659Z,15.93
2018-04-07T18:45:10.282Z,16.07
2018-04-07T18:47:38.064Z,16.53
2018-04-07T18:50:06.351Z,17.50
2018-04-07T18:52:34.666Z,18.00
2018-04-07T18:55:02.504Z,18.57
2018-04-07T18:57:30.786Z,17.73
2018-04-07T18:59:59.311Z,17.97
2018-04-07T19:02:26.854Z,17.80
2018-04-07T19:04:54.431Z,17.63
2018-04-07T19:07:22.111Z,17.90
2018-04-07T19:09:49.675Z,17.93
2018-04-07T19:12:17.217Z,16.10
2018-04-07T19:14:44.814Z,16.53
2018-04-07T19:17:12.361Z,17.23
2018-04-07T19:19:40.033Z,16.57
2018-04-07T19:22:07.696Z,16.17
2018-04-07T19:24:35.387Z,16.27
2018-04-07T19:27:03.717Z,17.00
2018-04-07T19:29:31.506Z,17.07
2018-04-07T19:31:59.024Z,18.20
2018-04-07T19:34:26.577Z,17.57
2018-04-07T19:36:54.357Z,17.50
2018-04-07T19:39:21.916Z,16.87
2018-04-07T19:41:49.570Z,17.73
2018-04-07T19:44:17.125Z,17.40
2018-04-07T19:46:44.688Z,18.23
2018-04-07T19:49:12.210Z,18.13
2018-04-07T19:51:39.912Z,18.17
2018-04-07T19:54:07.435Z,17.50
2018-04-07T19:56:34.987Z,18.07
2018-04-07T19:59:03.503Z,17.87
2018-04-07T20:01:31.126Z,18.27
2018-04-07T20:03:58.652Z,16.90
2018-04-07T20:06:26.377Z,18.10
2018-04-07T20:08:54.720Z,18.37
2018-04-07T20:11:22.292Z,17.50
2018-04-07T20:13:49.847Z,16.40
2018-04-07T20:16:17.364Z,18.07
2018-04-07T20:18:44.881Z,17.80
2018-04-07T20:21:12.561Z,18.07
2018-04-07T20:23:40.357Z,17.00
2018-04-07T20:26:08.009Z,16.90
2018-04-07T20:28:36.380Z,16.57
2018-04-07T20:31:03.993Z,17.47
2018-04-07T20:33:31.514Z,17.50
2018-04-07T20:35:59.868Z,16.87
2018-04-07T20:38:28.913Z,16.73
2018-04-07T20:40:56.452Z,17.30
2018-04-07T20:43:24.080Z,18.13
2018-04-07T20:45:51.689Z,17.03
2018-04-07T20:48:20.030Z,17.23
2018-04-07T20:50:48.514Z,16.73
2018-04-07T20:53:16.401Z,17.27
2018-04-07T20:55:44.006Z,17.00
2018-04-07T20:58:11.797Z,16.17
2018-04-07T21:00:39.317Z,16.67
2018-04-07T21:03:06.833Z,16.03
2018-04-07T21:05:34.639Z,16.53
2018-04-07T21:08:02.152Z,16.80
2018-04-07T21:10:29.665Z,16.07
2018-04-07T21:12:57.369Z,17.00
2018-04-07T21:15:24.898Z,16.33
2018-04-07T21:17:52.407Z,16.43
2018-04-07T21:20:19.957Z,15.77
2018-04-07T21:22:47.612Z,16.97
2018-04-07T21:25:16.197Z,17.47
2018-04-07T21:27:44.683Z,16.03
2018-04-07T21:30:13.088Z,16.83
2018-04-07T21:32:40.657Z,16.50
2018-04-07T21:35:08.191Z,16.80
2018-04-07T21:37:36.500Z,15.90
2018-04-07T21:40:04.044Z,16.33
2018-04-07T21:42:32.450Z,16.70
2018-04-07T21:45:00.135Z,17.23
2018-04-07T21:47:27.790Z,18.30
2018-04-07T21:49:55.636Z,17.33
2018-04-07T21:52:23.945Z,17.57
2018-04-07T21:54:51.488Z,16.93
2018-04-07T21:57:19.044Z,17.50
2018-04-07T21:59:47.351Z,17.70
2018-04-07T22:02:15.824Z,19.17
2018-04-07T22:04:43.354Z,18.60
2018-04-07T22:07:11.195Z,20.20
2018-04-07T22:09:38.968Z,19.83
2018-04-07T22:12:06.631Z,20.30
2018-04-07T22:14:34.168Z,19.43
2018-04-07T22:17:01.932Z,20.50
2018-04-07T22:19:29.488Z,20.00
2018-04-07T22:21:57.022Z,19.53
2018-04-07T22:24:25.350Z,19.70
2018-04-07T22:26:52.923Z,19.53
2018-04-07T22:29:20.468Z,18.23
2018-04-07T22:31:48.134Z,19.07
2018-04-07T22:34:15.673Z,19.60
2018-04-07T22:36:43.958Z,19.40
2018-04-07T22:39:12.281Z,20.33
2018-04-07T22:41:39.813Z,19.97
2018-04-07T22:44:07.337Z,19.37
2018-04-07T22:46:35.080Z,19.00
2018-04-07T22:49:02.740Z,19.90
2018-04-07T22:51:30.309Z,19.93
2018-04-07T22:53:57.892Z,20.60
2018-04-07T22:56:25.432Z,19.90
2018-04-07T22:58:52.961Z,21.30
2018-04-07T23:01:20.644Z,19.70
2018-04-07T23:03:48.175Z,20.93
2018-04-07T23:06:16.468Z,19.80
2018-04-07T23:08:44.380Z,20.60
2018-04-07T23:11:11.909Z,20.93
2018-04-07T23:13:39.433Z,19.63
2018-04-07T23:16:07.182Z,20.77
2018-04-07T23:18:34.708Z,18.03
2018-04-07T23:21:02.219Z,19.20
2018-04-07T23:23:29.929Z,19.20
2018-04-07T23:25:57.444Z,17.60
2018-04-07T23:28:24.983Z,16.77
2018-04-07T23:30:52.756Z,17.13
2018-04-07T23:33:20.261Z,17.17
2018-04-07T23:35:47.777Z,16.67
2018-04-07T23:38:15.331Z,16.80
2018-04-07T23:40:42.845Z,16.07
2018-04-07T23:43:10.355Z,15.73
2018-04-07T23:45:38.037Z,16.23
2018-04-07T23:48:05.544Z,16.40
2018-04-07T23:50:33.074Z,16.50
2018-04-07T23:53:00.820Z,17.27
2018-04-07T23:55:28.330Z,17.23
2018-04-07T23:57:55.846Z,18.27
